Time;durP1;ratioP1;P1;durP2;ratioP2;P2;SDS_P1;SDS_P2;PMS_P1;PMS_P2;Temp;Humidity;BMP_temperature;BMP_pressure;BME280_temperature;BME280_humidity;BME280_pressure;Samples;Min_cycle;Max_cycle;Signal;HPM_P1;HPM_P2
2023/10/09 00:01:14;;;;;;;1.63;1.10;;;17.00;99.90;;;;;;7390366;19;20127;-80
2023/10/09 00:03:42;;;;;;;2.65;1.10;;;16.90;99.90;;;;;;7391308;19;20573;-80
2023/10/09 00:06:09;;;;;;;1.17;0.98;;;17.00;99.90;;;;;;7390863;19;20170;-81
2023/10/09 00:08:37;;;;;;;3.72;1.45;;;17.10;99.90;;;;;;7391335;19;20169;-80
2023/10/09 00:11:19;;;;;;;2.53;1.15;;;17.10;99.90;;;;;;7392045;19;20158;-79
2023/10/09 00:13:57;;;;;;;1.92;1.20;;;17.10;99.90;;;;;;7392745;19;20265;-80
2023/10/09 00:16:33;;;;;;;2.80;1.30;;;17.10;99.90;;;;;;7392500;19;20265;-80
2023/10/09 00:19:19;;;;;;;3.58;1.38;;;17.00;99.90;;;;;;7392338;19;20141;-80
2023/10/09 00:21:49;;;;;;;2.00;1.50;;;16.90;99.90;;;;;;7391765;19;20141;-80
2023/10/09 00:24:25;;;;;;;1.80;1.40;;;16.80;99.90;;;;;;7395635;19;20146;-79
2023/10/09 00:29:46;;;;;;;3.50;1.60;;;16.80;99.90;;;;;;7393395;19;20487;-79
2023/10/09 00:32:32;;;;;;;1.15;0.80;;;16.80;99.90;;;;;;7392286;19;20147;-79
2023/10/09 00:35:36;;;;;;;2.90;1.00;;;16.90;99.90;;;;;;7392012;19;20535;-81
2023/10/09 00:37:45;;;;;;;4.10;1.23;;;16.80;99.90;;;;;;7390736;19;20138;-80
2023/10/09 00:40:20;;;;;;;2.03;1.40;;;16.90;99.90;;;;;;7386428;19;20130;-80
2023/10/09 00:42:47;;;;;;;2.03;1.27;;;16.80;99.90;;;;;;7393623;19;20868;-80
2023/10/09 00:45:24;;;;;;;2.47;1.10;;;16.70;99.90;;;;;;7392185;19;20131;-79
2023/10/09 00:47:51;;;;;;;4.57;1.20;;;16.70;99.90;;;;;;7391596;19;20172;-80
2023/10/09 00:52:54;;;;;;;1.77;1.15;;;16.50;99.90;;;;;;7394594;19;20138;-81
2023/10/09 00:58:14;;;;;;;3.97;1.42;;;16.60;99.90;;;;;;7394571;19;20153;-80
2023/10/09 01:03:13;;;;;;;3.15;1.60;;;16.30;99.90;;;;;;7391136;19;20472;-80
2023/10/09 01:05:51;;;;;;;6.28;2.00;;;16.50;99.90;;;;;;7390772;19;20245;-80
2023/10/09 01:08:30;;;;;;;4.22;1.58;;;16.60;99.90;;;;;;7391908;19;20231;-81
2023/10/09 01:11:08;;;;;;;1.67;0.88;;;16.40;99.90;;;;;;7393189;19;20539;-80
2023/10/09 01:16:17;;;;;;;2.15;1.42;;;16.40;99.90;;;;;;7387877;19;20151;-79
2023/10/09 01:18:49;;;;;;;3.22;1.65;;;16.40;99.90;;;;;;7391148;19;20142;-80
2023/10/09 01:21:17;;;;;;;3.63;1.95;;;16.30;99.90;;;;;;7391746;19;20138;-79
2023/10/09 01:24:03;;;;;;;3.03;1.58;;;16.20;99.90;;;;;;7390743;19;20135;-81
2023/10/09 01:29:32;;;;;;;1.38;1.08;;;16.30;99.90;;;;;;7388352;19;20154;-81
2023/10/09 01:32:00;;;;;;;2.83;1.70;;;16.40;99.90;;;;;;7389286;19;20155;-81
2023/10/09 01:34:44;;;;;;;1.92;1.40;;;16.20;99.90;;;;;;7390413;19;20142;-80
2023/10/09 01:37:31;;;;;;;2.40;1.33;;;16.00;99.90;;;;;;7390638;19;20150;-81
2023/10/09 01:40:15;;;;;;;2.67;1.50;;;16.20;99.90;;;;;;7389779;19;20213;-81
2023/10/09 01:42:47;;;;;;;3.65;1.45;;;16.50;99.90;;;;;;7392704;19;20133;-81
2023/10/09 01:45:27;;;;;;;2.90;1.13;;;16.40;99.90;;;;;;7390944;19;20588;-80
2023/10/09 01:47:56;;;;;;;1.98;1.20;;;16.40;99.90;;;;;;7392167;19;20138;-81
2023/10/09 01:50:27;;;;;;;1.80;1.17;;;16.30;99.90;;;;;;7390595;19;20138;-81
2023/10/09 01:52:53;;;;;;;2.90;1.23;;;16.50;99.90;;;;;;7391401;19;20231;-81
2023/10/09 01:55:29;;;;;;;1.50;0.95;;;16.30;99.90;;;;;;7390965;19;20159;-82
2023/10/09 01:57:58;;;;;;;4.55;1.77;;;16.50;99.90;;;;;;7392319;19;20131;-81
2023/10/09 02:00:28;;;;;;;2.70;1.20;;;16.40;99.90;;;;;;7385468;19;20751;-82
2023/10/09 02:02:54;;;;;;;1.67;0.93;;;16.50;99.90;;;;;;7390861;19;20498;-82
2023/10/09 02:07:51;;;;;;;2.80;1.63;;;16.40;99.90;;;;;;7390998;19;20141;-82
2023/10/09 02:12:57;;;;;;;1.90;1.30;;;16.40;99.90;;;;;;7390916;19;20447;-83
2023/10/09 02:18:27;;;;;;;2.55;1.80;;;16.40;99.90;;;;;;7387688;19;20150;-81
2023/10/09 02:26:19;;;;;;;2.38;1.10;;;16.70;99.90;;;;;;7389336;19;20150;-81
2023/10/09 02:29:23;;;;;;;2.30;1.40;;;16.70;99.90;;;;;;7391142;19;20130;-81
2023/10/09 02:31:46;;;;;;;1.23;1.00;;;16.60;99.90;;;;;;7389226;19;20154;-81
2023/10/09 02:34:12;;;;;;;2.63;1.50;;;16.60;99.90;;;;;;7388183;19;20284;-80
2023/10/09 02:36:41;;;;;;;1.10;0.80;;;16.60;99.90;;;;;;7390645;19;20134;-81
2023/10/09 02:42:19;;;;;;;2.30;1.35;;;16.70;99.90;;;;;;7390278;19;20156;-81
2023/10/09 02:44:51;;;;;;;4.18;2.03;;;16.70;99.90;;;;;;7389863;19;20174;-82
2023/10/09 02:47:29;;;;;;;1.70;1.40;;;16.60;99.90;;;;;;7387294;19;20210;-81
2023/10/09 02:50:06;;;;;;;1.98;1.10;;;16.50;99.90;;;;;;7388632;19;20689;-81
2023/10/09 02:52:40;;;;;;;1.35;1.05;;;16.50;99.90;;;;;;7389719;19;20158;-81
2023/10/09 02:55:12;;;;;;;2.17;1.23;;;16.50;99.90;;;;;;7389121;19;20142;-81
2023/10/09 02:57:38;;;;;;;1.75;1.13;;;16.50;99.90;;;;;;7389316;19;20153;-82
2023/10/09 03:00:09;;;;;;;3.78;1.63;;;16.20;99.90;;;;;;7387248;19;20138;-81
2023/10/09 03:02:39;;;;;;;2.00;1.13;;;16.30;99.90;;;;;;7389078;19;20218;-81
2023/10/09 03:05:11;;;;;;;4.35;1.27;;;16.50;99.90;;;;;;7386109;19;20178;-80
2023/10/09 03:07:39;;;;;;;1.80;1.08;;;16.50;99.90;;;;;;7389999;19;20190;-81
2023/10/09 03:10:09;;;;;;;2.92;1.58;;;16.50;99.90;;;;;;7387351;19;20130;-82
2023/10/09 03:12:39;;;;;;;1.45;1.23;;;16.50;99.90;;;;;;7388297;19;20217;-81
2023/10/09 03:15:08;;;;;;;2.13;1.55;;;16.50;99.90;;;;;;7393832;19;20162;-82
2023/10/09 03:17:34;;;;;;;3.45;1.80;;;16.50;99.90;;;;;;7393563;19;20150;-80
2023/10/09 03:20:13;;;;;;;2.17;1.10;;;16.30;99.90;;;;;;7392728;19;20583;-80
2023/10/09 03:22:40;;;;;;;3.20;1.50;;;16.30;99.90;;;;;;7394944;19;20134;-80
2023/10/09 03:25:16;;;;;;;2.47;1.02;;;16.50;99.90;;;;;;7395382;19;20123;-80
2023/10/09 03:27:47;;;;;;;2.78;1.40;;;16.50;99.90;;;;;;7393368;19;20209;-80
2023/10/09 03:30:23;;;;;;;1.75;1.38;;;16.60;99.90;;;;;;7393789;19;20250;-79
2023/10/09 03:32:55;;;;;;;1.60;1.25;;;16.50;99.90;;;;;;7392081;19;20146;-81
2023/10/09 03:35:25;;;;;;;3.50;1.13;;;16.50;99.90;;;;;;7391859;19;20153;-80
2023/10/09 03:38:11;;;;;;;2.55;1.25;;;16.60;99.90;;;;;;7395220;19;20176;-81
2023/10/09 03:40:47;;;;;;;5.10;1.45;;;16.60;99.90;;;;;;7390729;19;20266;-80
2023/10/09 03:43:14;;;;;;;2.22;1.20;;;16.60;99.90;;;;;;7394113;19;20149;-81
2023/10/09 03:45:52;;;;;;;2.10;1.27;;;16.60;99.90;;;;;;7392744;19;20153;-81
2023/10/09 03:48:25;;;;;;;1.75;1.38;;;16.60;99.90;;;;;;7394737;19;20137;-81
2023/10/09 03:51:08;;;;;;;1.77;1.20;;;16.50;99.90;;;;;;7394731;19;20172;-81
2023/10/09 03:53:36;;;;;;;2.40;1.83;;;16.50;99.90;;;;;;7392850;19;20150;-80
2023/10/09 03:56:12;;;;;;;1.65;1.35;;;16.50;99.90;;;;;;7391697;19;20170;-80
2023/10/09 03:58:45;;;;;;;3.28;1.27;;;16.50;99.90;;;;;;7391895;19;20620;-83
2023/10/09 04:01:28;;;;;;;3.30;1.20;;;16.20;99.90;;;;;;7391440;19;20173;-82
2023/10/09 04:03:55;;;;;;;4.43;2.00;;;16.20;99.90;;;;;;7395814;19;20242;-80
2023/10/09 04:06:22;;;;;;;3.60;1.20;;;16.30;99.90;;;;;;7393035;19;20497;-82
2023/10/09 04:08:48;;;;;;;1.83;1.10;;;16.40;99.90;;;;;;7393736;19;20131;-82
2023/10/09 04:11:17;;;;;;;3.72;1.50;;;16.60;99.90;;;;;;7392185;19;20139;-81
2023/10/09 04:13:47;;;;;;;4.63;1.15;;;16.60;99.90;;;;;;7391586;19;20142;-81
2023/10/09 04:19:11;;;;;;;1.48;1.20;;;16.60;99.90;;;;;;7393744;19;20161;-81
2023/10/09 04:21:37;;;;;;;2.30;1.63;;;16.60;99.90;;;;;;7391857;19;20147;-81
2023/10/09 04:26:44;;;;;;;2.20;1.08;;;16.50;99.90;;;;;;7395115;19;20131;-81
2023/10/09 04:29:18;;;;;;;1.92;1.17;;;16.40;99.90;;;;;;7389194;19;20218;-81
2023/10/09 04:31:51;;;;;;;1.95;0.98;;;16.40;99.90;;;;;;7395293;19;20564;-83
2023/10/09 04:34:22;;;;;;;1.80;1.20;;;16.40;99.90;;;;;;7389608;19;20138;-82
2023/10/09 04:37:00;;;;;;;2.38;1.42;;;16.40;99.90;;;;;;7393218;19;20139;-82
2023/10/09 04:47:49;;;;;;;2.13;1.70;;;16.30;99.90;;;;;;7392070;19;20188;-81
2023/10/09 04:58:00;;;;;;;2.90;1.70;;;16.40;99.90;;;;;;7391996;19;20127;-82
2023/10/09 05:03:24;;;;;;;2.53;1.45;;;16.40;99.90;;;;;;7393513;19;20152;-82
2023/10/09 05:05:59;;;;;;;3.35;1.55;;;16.30;99.90;;;;;;7390975;19;20312;-82
2023/10/09 05:08:32;;;;;;;1.88;1.33;;;16.40;99.90;;;;;;7391017;19;20161;-82
2023/10/09 05:16:04;;;;;;;1.50;1.40;;;16.40;99.90;;;;;;7391216;19;20150;-82
2023/10/09 05:18:36;;;;;;;3.17;1.77;;;16.40;99.90;;;;;;7391759;19;20142;-82
2023/10/09 05:24:15;;;;;;;3.08;1.50;;;16.20;99.90;;;;;;7393877;19;20550;-81
2023/10/09 05:37:43;;;;;;;3.25;1.55;;;16.30;99.90;;;;;;7388884;19;20154;-80
2023/10/09 05:42:43;;;;;;;2.05;1.50;;;16.20;99.90;;;;;;7386496;19;20143;-81
2023/10/09 05:47:53;;;;;;;3.83;1.60;;;16.10;99.90;;;;;;7392914;19;20243;-81
2023/10/09 05:53:06;;;;;;;2.13;1.50;;;16.30;99.90;;;;;;7392447;19;20161;-83
2023/10/09 06:02:44;;;;;;;1.83;1.10;;;16.40;99.90;;;;;;7387946;19;20163;-81
2023/10/09 06:06:56;;;;;;;2.53;1.60;;;16.50;99.90;;;;;;7388633;19;20568;-81
2023/10/09 06:11:49;;;;;;;3.15;2.00;;;16.40;99.90;;;;;;7392085;19;20575;-82
2023/10/09 06:19:27;;;;;;;2.63;2.00;;;16.40;99.90;;;;;;7391924;19;20142;-85
2023/10/09 06:24:33;;;;;;;1.70;1.42;;;16.40;99.90;;;;;;7390198;19;20581;-82
2023/10/09 06:29:35;;;;;;;4.18;2.25;;;16.40;99.90;;;;;;7390736;19;20174;-79
2023/10/09 06:46:37;;;;;;;2.88;1.83;;;16.60;99.90;;;;;;7390278;19;20146;-78
2023/10/09 06:48:45;;;;;;;4.05;2.13;;;16.60;99.90;;;;;;7397925;19;20150;-79
2023/10/09 06:59:15;;;;;;;3.38;1.67;;;16.40;99.90;;;;;;7398366;19;20148;-80
2023/10/09 07:01:47;;;;;;;1.90;1.50;;;16.40;99.90;;;;;;7397846;19;20210;-79
2023/10/09 07:04:19;;;;;;;4.10;1.35;;;16.50;99.90;;;;;;7396267;19;20154;-79
2023/10/09 07:06:48;;;;;;;2.63;1.20;;;16.50;99.90;;;;;;7396365;19;20213;-81
2023/10/09 07:09:15;;;;;;;2.80;1.52;;;16.60;99.90;;;;;;7398998;19;20402;-81
2023/10/09 07:22:29;;;;;;;3.03;1.92;;;16.90;99.90;;;;;;7406475;19;20587;-81
2023/10/09 07:27:44;;;;;;;4.00;1.77;;;17.00;99.90;;;;;;7395512;19;20159;-82
2023/10/09 07:38:10;;;;;;;2.78;1.70;;;17.10;99.90;;;;;;7395913;19;20162;-80
2023/10/09 07:43:28;;;;;;;3.78;1.70;;;17.20;99.90;;;;;;7394778;19;20150;-77
2023/10/09 07:48:38;;;;;;;3.35;1.65;;;17.30;99.90;;;;;;7396053;19;20154;-79
2023/10/09 07:51:16;;;;;;;3.28;1.80;;;17.20;99.90;;;;;;7395728;19;20230;-77
2023/10/09 07:53:44;;;;;;;3.10;1.63;;;17.20;99.90;;;;;;7396956;19;20202;-78
2023/10/09 07:56:20;;;;;;;2.78;1.50;;;17.20;99.90;;;;;;7396584;19;20180;-80
2023/10/09 07:58:47;;;;;;;2.85;1.65;;;17.30;99.90;;;;;;7394230;19;20205;-81
2023/10/09 08:01:34;;;;;;;3.53;1.88;;;17.30;99.90;;;;;;7393744;19;20135;-81
2023/10/09 08:04:13;;;;;;;6.25;1.95;;;17.40;99.90;;;;;;7394794;19;20126;-82
2023/10/09 08:06:44;;;;;;;5.65;1.92;;;17.50;99.90;;;;;;7393342;19;20150;-81
2023/10/09 08:17:11;;;;;;;4.85;1.77;;;17.60;99.90;;;;;;7396435;19;20130;-80
2023/10/09 08:19:53;;;;;;;4.47;2.65;;;17.50;99.90;;;;;;7393819;19;20189;-79
2023/10/09 08:24:56;;;;;;;2.60;2.05;;;17.80;99.90;;;;;;7394714;19;20149;-79
2023/10/09 08:33:00;;;;;;;2.38;1.58;;;17.80;99.90;;;;;;7394451;19;20127;-80
2023/10/09 08:35:47;;;;;;;3.47;1.90;;;17.90;99.90;;;;;;7394808;19;20140;-80
2023/10/09 08:38:14;;;;;;;1.95;1.30;;;18.00;99.90;;;;;;7396036;19;20150;-81
2023/10/09 08:40:42;;;;;;;3.13;1.50;;;18.20;99.90;;;;;;7391654;19;20134;-79
2023/10/09 08:43:21;;;;;;;1.85;1.25;;;18.10;99.90;;;;;;7394590;19;20595;-80
2023/10/09 08:45:54;;;;;;;3.63;2.10;;;18.00;99.90;;;;;;7393298;19;20134;-82
2023/10/09 08:48:27;;;;;;;3.60;2.17;;;18.00;99.90;;;;;;7392557;19;20467;-78
2023/10/09 08:50:56;;;;;;;3.00;1.33;;;18.20;99.90;;;;;;7400624;19;20563;-78
2023/10/09 08:53:43;;;;;;;2.15;1.63;;;18.30;99.90;;;;;;7396851;19;20130;-80
2023/10/09 08:56:11;;;;;;;1.40;1.05;;;18.30;99.90;;;;;;7394740;19;20807;-78
2023/10/09 08:58:38;;;;;;;3.03;1.60;;;18.30;99.90;;;;;;7394864;19;20214;-80
2023/10/09 09:01:04;;;;;;;1.65;1.20;;;18.30;99.90;;;;;;7389941;19;20154;-78
2023/10/09 09:03:43;;;;;;;1.92;1.58;;;18.40;99.90;;;;;;7392732;19;20130;-81
2023/10/09 09:06:10;;;;;;;2.28;1.42;;;18.50;99.90;;;;;;7390515;19;20710;-79
2023/10/09 09:08:36;;;;;;;2.50;1.73;;;18.40;99.90;;;;;;7392174;19;20474;-80
2023/10/09 09:11:17;;;;;;;5.20;2.05;;;18.50;99.90;;;;;;7389123;19;20464;-79
2023/10/09 09:13:48;;;;;;;2.53;1.50;;;18.50;99.90;;;;;;7392304;19;20621;-78
2023/10/09 09:16:31;;;;;;;1.90;1.30;;;18.40;99.90;;;;;;7392402;19;20588;-80
2023/10/09 09:19:26;;;;;;;2.22;1.35;;;18.50;99.90;;;;;;7391522;19;20151;-79
2023/10/09 09:21:59;;;;;;;1.83;1.10;;;18.60;99.90;;;;;;7393282;19;20155;-80
2023/10/09 09:27:09;;;;;;;1.92;1.30;;;18.80;99.90;;;;;;7393269;19;20463;-78
2023/10/09 09:29:38;;;;;;;1.73;0.95;;;18.80;99.90;;;;;;7392560;19;20189;-80
2023/10/09 09:32:18;;;;;;;2.85;1.27;;;18.90;99.90;;;;;;7394179;19;20151;-81
2023/10/09 09:35:01;;;;;;;3.15;1.50;;;18.80;99.90;;;;;;7392340;19;20134;-80
2023/10/09 09:38:02;;;;;;;2.00;1.00;;;19.00;99.90;;;;;;7393427;19;20560;-83
2023/10/09 09:40:29;;;;;;;1.80;1.10;;;19.10;99.90;;;;;;7391761;19;20150;-80
2023/10/09 09:43:11;;;;;;;1.85;1.33;;;19.10;99.90;;;;;;7394952;19;20607;-79
2023/10/09 09:45:37;;;;;;;1.95;1.23;;;19.10;99.90;;;;;;7400136;19;20153;-80
2023/10/09 09:48:15;;;;;;;2.03;1.15;;;19.20;99.90;;;;;;7391168;19;20653;-83
2023/10/09 09:50:46;;;;;;;3.67;1.52;;;19.10;99.90;;;;;;7391814;19;20166;-80
2023/10/09 09:53:18;;;;;;;2.30;1.25;;;19.10;99.90;;;;;;7393048;19;20157;-78
2023/10/09 09:55:55;;;;;;;1.77;1.50;;;19.10;99.90;;;;;;7392285;19;20147;-78
2023/10/09 09:58:23;;;;;;;4.00;1.77;;;19.10;99.90;;;;;;7391840;19;20147;-79
2023/10/09 10:01:00;;;;;;;3.50;1.58;;;19.20;99.90;;;;;;7389149;19;20604;-78
2023/10/09 10:03:38;;;;;;;2.55;1.30;;;19.30;99.90;;;;;;7388468;19;20134;-76
2023/10/09 10:06:09;;;;;;;6.07;1.60;;;19.50;99.90;;;;;;7389001;19;20224;-79
2023/10/09 10:08:39;;;;;;;3.80;1.50;;;19.50;99.90;;;;;;7393571;19;20922;-78
2023/10/09 10:11:05;;;;;;;1.40;1.30;;;19.50;99.90;;;;;;7391650;19;20603;-89
2023/10/09 10:13:58;;;;;;;2.90;1.10;;;19.40;99.90;;;;;;7394985;19;20155;-88
2023/10/09 10:16:24;;;;;;;2.83;1.33;;;19.50;99.90;;;;;;7392176;19;20154;-88
2023/10/09 10:19:07;;;;;;;1.77;1.30;;;19.50;99.90;;;;;;7392836;19;20549;-86
2023/10/09 10:21:48;;;;;;;4.78;1.45;;;19.50;99.90;;;;;;7393285;19;20165;-87
2023/10/09 10:24:32;;;;;;;1.98;1.50;;;19.50;99.90;;;;;;7393157;19;20138;-85
2023/10/09 10:30:23;;;;;;;1.65;1.20;;;19.90;99.90;;;;;;7395428;19;20198;-86
2023/10/09 10:32:53;;;;;;;1.83;1.30;;;20.20;99.90;;;;;;7390203;19;20155;-84
2023/10/09 10:35:32;;;;;;;2.83;1.60;;;20.20;99.90;;;;;;7389948;19;20466;-85
2023/10/09 10:40:45;;;;;;;2.22;1.30;;;20.20;99.90;;;;;;7389779;19;20146;-84
2023/10/09 10:43:47;;;;;;;2.53;1.23;;;20.20;99.90;;;;;;7391009;19;20189;-87
2023/10/09 10:46:24;;;;;;;2.50;1.40;;;20.10;99.90;;;;;;7388794;19;20399;-85
2023/10/09 10:48:59;;;;;;;5.45;1.80;;;20.10;99.90;;;;;;7391656;19;20158;-85
2023/10/09 10:51:37;;;;;;;3.00;1.75;;;20.10;99.90;;;;;;7394722;19;20183;-86
2023/10/09 10:56:57;;;;;;;2.85;1.50;;;20.00;99.90;;;;;;7389307;19;20231;-86
2023/10/09 10:59:24;;;;;;;3.67;1.38;;;20.10;99.90;;;;;;7392148;19;20156;-87
2023/10/09 11:02:37;;;;;;;4.28;1.88;;;20.10;99.90;;;;;;7402544;19;20715;-88
2023/10/09 11:04:43;;;;;;;2.35;1.23;;;20.10;99.90;;;;;;7393901;19;20146;-85
2023/10/09 11:07:12;;;;;;;3.63;1.70;;;20.20;99.90;;;;;;7393475;19;20258;-86
2023/10/09 11:10:09;;;;;;;2.85;1.63;;;20.30;99.90;;;;;;7391581;19;20268;-86
2023/10/09 11:12:39;;;;;;;3.95;2.10;;;20.40;99.90;;;;;;7390964;19;20238;-80
2023/10/09 11:15:08;;;;;;;2.40;0.98;;;20.40;99.90;;;;;;7388042;19;20505;-83
2023/10/09 11:17:38;;;;;;;2.63;1.30;;;20.60;99.90;;;;;;7389072;19;20147;-84
2023/10/09 11:23:39;;;;;;;2.60;0.93;;;20.70;99.90;;;;;;7390830;19;20479;-87
2023/10/09 11:25:49;;;;;;;2.40;1.50;;;20.70;99.90;;;;;;7385152;19;20162;-85
2023/10/09 11:28:48;;;;;;;3.30;1.50;;;20.80;99.90;;;;;;7388671;19;20130;-83
2023/10/09 11:31:17;;;;;;;4.00;1.65;;;20.90;99.90;;;;;;7387856;19;20143;-84
2023/10/09 11:33:51;;;;;;;4.13;2.33;;;20.90;99.90;;;;;;7394085;19;20151;-84
2023/10/09 11:36:21;;;;;;;2.63;1.67;;;20.90;99.90;;;;;;7394877;19;20147;-84
2023/10/09 11:38:49;;;;;;;2.92;1.88;;;21.00;99.90;;;;;;7394429;19;20158;-80
2023/10/09 11:41:19;;;;;;;3.45;1.70;;;21.00;99.90;;;;;;7392048;19;20143;-82
2023/10/09 11:43:54;;;;;;;3.50;2.20;;;20.90;99.90;;;;;;7395773;19;20154;-87
2023/10/09 11:49:44;;;;;;;2.78;1.60;;;20.80;99.90;;;;;;7392576;19;20134;-80
2023/10/09 11:54:35;;;;;;;3.13;2.03;;;20.90;99.90;;;;;;7396896;19;20134;-80
2023/10/09 11:57:04;;;;;;;3.28;1.88;;;20.90;99.90;;;;;;7395979;19;20590;-81
2023/10/09 11:59:37;;;;;;;5.90;2.67;;;20.90;99.90;;;;;;7394767;19;20179;-85
2023/10/09 12:02:13;;;;;;;4.50;2.78;;;20.90;99.90;;;;;;7398511;19;20145;-83
2023/10/09 12:04:41;;;;;;;2.72;1.60;;;20.90;99.90;;;;;;7396640;19;20130;-81
2023/10/09 12:07:10;;;;;;;4.78;2.08;;;20.90;99.90;;;;;;7405005;19;20131;-84
2023/10/09 12:09:39;;;;;;;3.15;1.30;;;21.00;99.90;;;;;;7395422;19;20131;-84
2023/10/09 12:12:09;;;;;;;1.67;1.10;;;21.00;99.90;;;;;;7392087;19;20211;-84
2023/10/09 12:14:37;;;;;;;2.78;1.10;;;21.00;99.90;;;;;;7394901;19;20135;-83
2023/10/09 12:17:08;;;;;;;2.63;1.25;;;21.00;99.90;;;;;;7396432;19;20146;-85
2023/10/09 12:19:34;;;;;;;3.22;2.38;;;21.00;99.90;;;;;;7395845;19;20219;-86
2023/10/09 12:22:05;;;;;;;3.85;2.45;;;21.10;99.90;;;;;;7392887;19;20226;-85
2023/10/09 12:24:33;;;;;;;3.53;1.50;;;21.10;99.90;;;;;;7392475;19;20508;-88
2023/10/09 12:27:00;;;;;;;3.60;2.03;;;21.20;99.90;;;;;;7395366;19;20134;-84
2023/10/09 12:29:30;;;;;;;4.68;2.25;;;21.40;99.90;;;;;;7393798;19;20150;-88
2023/10/09 12:31:59;;;;;;;2.33;1.40;;;21.50;99.90;;;;;;7394387;19;20135;-87
2023/10/09 12:34:30;;;;;;;2.58;1.90;;;21.40;99.90;;;;;;7393555;19;20137;-85
2023/10/09 12:37:06;;;;;;;2.25;1.50;;;21.60;99.90;;;;;;7394646;19;20147;-86
2023/10/09 12:39:39;;;;;;;5.68;1.98;;;21.60;99.90;;;;;;7393489;19;20158;-84
2023/10/09 12:42:08;;;;;;;5.90;2.95;;;21.60;99.90;;;;;;7392952;19;20698;-84
2023/10/09 12:44:40;;;;;;;3.53;1.98;;;21.60;99.90;;;;;;7393341;19;20134;-84
2023/10/09 12:47:07;;;;;;;2.90;1.83;;;21.60;99.90;;;;;;7392292;19;20153;-84
2023/10/09 12:49:32;;;;;;;1.98;1.35;;;21.60;99.90;;;;;;7393009;19;20557;-84
2023/10/09 12:51:58;;;;;;;3.25;1.63;;;21.70;99.90;;;;;;7393617;19;20152;-85
2023/10/09 12:54:28;;;;;;;2.50;1.30;;;21.70;99.90;;;;;;7392530;19;20142;-85
2023/10/09 12:56:55;;;;;;;2.55;1.70;;;21.80;99.90;;;;;;7393699;19;20162;-84
2023/10/09 12:59:21;;;;;;;3.25;1.30;;;21.80;99.90;;;;;;7393543;19;20579;-86
2023/10/09 13:01:57;;;;;;;3.70;1.55;;;21.80;99.90;;;;;;7394890;19;20145;-84
2023/10/09 13:04:24;;;;;;;3.55;1.95;;;21.80;99.90;;;;;;7392414;19;20242;-85
2023/10/09 13:06:53;;;;;;;3.13;1.83;;;21.80;99.90;;;;;;7392124;19;20162;-84
2023/10/09 13:09:34;;;;;;;3.08;1.77;;;21.80;99.90;;;;;;7397347;19;20134;-87
2023/10/09 13:12:03;;;;;;;6.70;1.67;;;21.70;99.90;;;;;;7392800;19;20134;-83
2023/10/09 13:14:33;;;;;;;2.58;1.33;;;21.90;99.90;;;;;;7398859;19;20158;-84
2023/10/09 13:17:00;;;;;;;3.75;1.80;;;21.90;99.90;;;;;;7395746;19;20308;-86
2023/10/09 13:19:26;;;;;;;4.05;1.98;;;22.10;99.90;;;;;;7395410;19;20146;-87
2023/10/09 13:21:51;;;;;;;2.38;1.48;;;22.00;99.90;;;;;;7399327;19;20131;-89
2023/10/09 13:24:17;;;;;;;3.03;1.45;;;22.10;99.90;;;;;;7396113;19;20169;-83
2023/10/09 13:26:46;;;;;;;3.08;1.92;;;22.20;99.90;;;;;;7396952;19;20150;-85
2023/10/09 13:29:13;;;;;;;2.75;1.60;;;22.30;97.10;;;;;;7392732;19;20474;-84
2023/10/09 13:31:46;;;;;;;3.28;2.03;;;22.40;96.80;;;;;;7391370;19;20161;-82
2023/10/09 13:34:15;;;;;;;2.47;1.40;;;22.50;95.10;;;;;;7390158;19;20173;-82
2023/10/09 13:36:52;;;;;;;2.10;1.30;;;22.80;93.80;;;;;;7394862;19;20482;-79
2023/10/09 13:39:26;;;;;;;3.55;1.50;;;22.90;91.30;;;;;;7391302;19;20199;-78
2023/10/09 13:42:01;;;;;;;2.78;1.48;;;23.20;85.50;;;;;;7391103;19;20147;-79
2023/10/09 13:44:27;;;;;;;3.67;1.70;;;23.30;84.20;;;;;;7392286;19;20165;-77
2023/10/09 13:47:01;;;;;;;2.50;1.60;;;23.40;78.40;;;;;;7389581;19;20234;-78
2023/10/09 13:49:30;;;;;;;3.72;1.95;;;23.40;74.30;;;;;;7389915;19;20154;-79
2023/10/09 13:51:56;;;;;;;2.88;1.70;;;23.40;69.40;;;;;;7390506;19;20649;-78
2023/10/09 13:56:58;;;;;;;3.10;1.60;;;23.50;66.20;;;;;;7392571;19;20167;-80
2023/10/09 13:59:27;;;;;;;1.98;1.40;;;23.50;65.70;;;;;;7390045;19;20210;-77
2023/10/09 14:01:59;;;;;;;2.00;1.70;;;23.70;65.40;;;;;;7391657;19;20135;-79
2023/10/09 14:04:28;;;;;;;2.58;1.50;;;23.80;64.50;;;;;;7389691;19;20155;-76
2023/10/09 14:06:57;;;;;;;3.22;1.50;;;23.90;62.70;;;;;;7388096;19;20169;-76
2023/10/09 14:09:45;;;;;;;3.10;1.50;;;23.80;62.60;;;;;;7390084;19;20181;-76
2023/10/09 14:12:13;;;;;;;3.13;1.52;;;23.80;64.00;;;;;;7388506;19;20130;-76
2023/10/09 14:14:49;;;;;;;4.50;2.38;;;23.60;65.50;;;;;;7388173;19;20147;-77
2023/10/09 14:17:19;;;;;;;3.05;1.70;;;23.50;64.40;;;;;;7389477;19;20150;-77
2023/10/09 14:19:48;;;;;;;4.05;2.13;;;23.60;63.40;;;;;;7385826;19;20151;-77
2023/10/09 14:22:24;;;;;;;3.55;1.67;;;23.50;67.20;;;;;;7390005;19;20202;-77
2023/10/09 14:24:55;;;;;;;4.05;1.70;;;23.40;65.10;;;;;;7387593;19;20138;-77
2023/10/09 14:27:25;;;;;;;3.63;1.75;;;23.30;65.10;;;;;;7388851;19;20600;-77
2023/10/09 14:29:56;;;;;;;3.05;1.60;;;23.30;64.20;;;;;;7389462;19;20218;-77
2023/10/09 14:32:28;;;;;;;3.40;1.92;;;23.30;67.40;;;;;;7387342;19;20142;-77
2023/10/09 14:34:57;;;;;;;3.85;1.58;;;23.10;64.80;;;;;;7390595;19;20147;-77
2023/10/09 14:37:24;;;;;;;3.08;1.38;;;23.00;67.10;;;;;;7387662;19;20159;-78
2023/10/09 14:39:50;;;;;;;1.92;1.42;;;23.00;66.00;;;;;;7389668;19;20456;-78
2023/10/09 14:42:21;;;;;;;3.08;1.75;;;23.00;66.40;;;;;;7387256;19;20147;-78
2023/10/09 14:44:47;;;;;;;2.95;1.33;;;23.00;68.50;;;;;;7390347;19;20150;-78
2023/10/09 14:47:15;;;;;;;2.17;1.45;;;23.00;67.00;;;;;;7388970;19;20149;-79
2023/10/09 14:49:46;;;;;;;3.65;1.83;;;23.00;65.70;;;;;;7391789;19;20138;-80
2023/10/09 14:52:16;;;;;;;1.75;1.38;;;23.00;66.40;;;;;;7388611;19;20223;-80
2023/10/09 14:54:44;;;;;;;3.10;1.52;;;22.90;66.90;;;;;;7388775;19;20220;-79
2023/10/09 14:57:11;;;;;;;4.00;1.50;;;22.90;67.00;;;;;;7388039;19;20142;-78
2023/10/09 14:59:37;;;;;;;3.13;1.23;;;23.00;67.30;;;;;;7388967;19;20482;-79
2023/10/09 15:02:05;;;;;;;3.83;1.77;;;22.90;67.70;;;;;;7387559;19;20229;-78
2023/10/09 15:04:34;;;;;;;3.20;1.83;;;22.90;68.10;;;;;;7386094;19;20138;-77
2023/10/09 15:07:01;;;;;;;3.60;1.70;;;22.90;70.80;;;;;;7384376;19;20165;-79
2023/10/09 15:09:31;;;;;;;3.67;1.40;;;22.80;71.40;;;;;;7393541;19;20139;-80
2023/10/09 15:11:57;;;;;;;2.88;1.70;;;22.80;71.90;;;;;;7395835;19;20130;-77
2023/10/09 15:14:23;;;;;;;3.85;2.08;;;22.80;75.00;;;;;;7395540;19;20505;-78
2023/10/09 15:16:50;;;;;;;3.20;1.63;;;22.70;73.70;;;;;;7396098;19;20149;-78
2023/10/09 15:19:16;;;;;;;3.20;2.13;;;22.70;73.60;;;;;;7397574;19;20243;-78
2023/10/09 15:21:46;;;;;;;2.67;1.55;;;22.60;74.40;;;;;;7393858;19;20146;-76
2023/10/09 15:24:15;;;;;;;2.17;1.35;;;22.60;75.10;;;;;;7395775;19;20588;-78
2023/10/09 15:26:42;;;;;;;3.97;1.73;;;22.60;73.90;;;;;;7392182;19;20157;-78
2023/10/09 15:29:09;;;;;;;4.68;1.85;;;22.60;74.30;;;;;;7396605;19;20580;-80
2023/10/09 15:31:36;;;;;;;2.83;1.70;;;22.60;75.50;;;;;;7396651;19;20847;-78
2023/10/09 15:34:02;;;;;;;3.75;1.27;;;22.60;74.90;;;;;;7396774;19;20146;-79
2023/10/09 15:36:31;;;;;;;3.00;1.65;;;22.50;77.50;;;;;;7393156;19;20137;-78
2023/10/09 15:38:59;;;;;;;3.85;2.15;;;22.40;78.40;;;;;;7391393;19;20567;-78
2023/10/09 15:41:34;;;;;;;4.40;1.85;;;22.40;78.70;;;;;;7390209;19;20978;-79
2023/10/09 15:44:01;;;;;;;3.42;1.58;;;22.40;78.70;;;;;;7394519;19;20166;-78
2023/10/09 15:46:33;;;;;;;6.07;2.10;;;22.40;80.20;;;;;;7394536;19;20182;-77
2023/10/09 15:49:00;;;;;;;2.78;1.75;;;22.40;79.90;;;;;;7395775;19;20146;-77
2023/10/09 15:51:27;;;;;;;3.72;1.60;;;22.40;79.60;;;;;;7394401;19;20643;-78
2023/10/09 15:53:53;;;;;;;2.20;1.20;;;22.40;80.50;;;;;;7394389;19;20150;-77
2023/10/09 15:56:21;;;;;;;3.72;1.67;;;22.40;80.70;;;;;;7392679;19;20218;-77
2023/10/09 15:58:47;;;;;;;3.60;1.90;;;22.30;82.40;;;;;;7392568;19;20142;-78
2023/10/09 16:01:14;;;;;;;5.00;2.55;;;22.20;83.50;;;;;;7391599;19;20225;-76
2023/10/09 16:03:44;;;;;;;5.60;3.25;;;22.10;84.80;;;;;;7392841;19;20277;-77
2023/10/09 16:06:11;;;;;;;4.75;2.10;;;22.00;85.00;;;;;;7393564;19;20153;-77
2023/10/09 16:08:39;;;;;;;3.88;1.70;;;22.00;84.30;;;;;;7392878;19;20272;-76
2023/10/09 16:11:05;;;;;;;1.63;1.38;;;21.90;86.20;;;;;;7394943;19;20134;-78
2023/10/09 16:13:32;;;;;;;2.85;1.38;;;21.90;85.90;;;;;;7393825;19;20215;-77
2023/10/09 16:16:00;;;;;;;2.63;2.03;;;21.80;87.80;;;;;;7395453;19;20150;-80
2023/10/09 16:18:27;;;;;;;2.58;1.80;;;21.80;86.80;;;;;;7392934;19;20158;-76
2023/10/09 16:20:56;;;;;;;4.00;1.55;;;21.70;88.20;;;;;;7393092;19;20138;-79
2023/10/09 16:23:22;;;;;;;3.70;1.95;;;21.70;89.60;;;;;;7392155;19;20138;-76
2023/10/09 16:25:48;;;;;;;3.10;2.08;;;21.60;90.00;;;;;;7394427;19;20135;-79